createdAt,value
2022-09-15T00:01:53.618Z,20.10
2022-09-15T00:04:20.650Z,20.10
2022-09-15T00:06:47.757Z,20.10
2022-09-15T00:09:15.017Z,20.10
2022-09-15T00:11:42.323Z,20.00
2022-09-15T00:14:09.830Z,19.90
2022-09-15T00:16:37.756Z,20.00
2022-09-15T00:19:06.469Z,19.90
2022-09-15T00:21:37.463Z,19.80
2022-09-15T00:24:04.809Z,19.80
2022-09-15T00:26:32.488Z,19.90
2022-09-15T00:29:01.052Z,19.90
2022-09-15T00:31:30.077Z,19.90
2022-09-15T00:34:05.189Z,19.90
2022-09-15T00:36:32.503Z,19.90
2022-09-15T00:39:00.230Z,19.90
2022-09-15T00:41:32.957Z,19.80
2022-09-15T00:44:09.528Z,19.80
2022-09-15T00:46:54.814Z,19.80
2022-09-15T00:49:35.836Z,19.70
2022-09-15T00:52:07.510Z,19.60
2022-09-15T00:54:53.416Z,19.60
2022-09-15T00:57:32.614Z,19.50
2022-09-15T01:00:02.759Z,19.50
2022-09-15T01:02:33.315Z,19.40
2022-09-15T01:05:03.182Z,19.40
2022-09-15T01:07:42.025Z,19.30
2022-09-15T01:10:15.483Z,19.40
2022-09-15T01:12:42.724Z,19.30
2022-09-15T01:15:10.965Z,19.40
2022-09-15T01:18:09.814Z,19.40
2022-09-15T01:20:36.919Z,19.30
2022-09-15T01:23:19.935Z,19.30
2022-09-15T01:26:05.155Z,19.30
2022-09-15T01:28:57.168Z,19.30
2022-09-15T01:31:57.856Z,19.30
2022-09-15T01:34:26.659Z,19.30
2022-09-15T01:36:59.806Z,19.40
2022-09-15T01:39:32.223Z,19.30
2022-09-15T01:42:12.861Z,19.30
2022-09-15T01:44:49.296Z,19.20
2022-09-15T01:47:19.411Z,19.20
2022-09-15T01:49:58.951Z,19.20
2022-09-15T01:52:26.474Z,19.20
2022-09-15T01:54:58.794Z,19.20
2022-09-15T01:57:27.247Z,19.20
2022-09-15T01:59:56.205Z,19.20
2022-09-15T02:02:30.976Z,19.10
2022-09-15T02:05:11.387Z,19.10
2022-09-15T02:08:06.022Z,19.10
2022-09-15T02:10:43.989Z,19.10
2022-09-15T02:13:22.205Z,19.10
2022-09-15T02:15:53.566Z,18.90
2022-09-15T02:18:45.313Z,18.80
2022-09-15T02:21:53.776Z,18.90
2022-09-15T02:24:35.800Z,18.90
2022-09-15T02:27:07.363Z,18.90
2022-09-15T02:29:36.497Z,18.90
2022-09-15T02:32:07.381Z,18.80
2022-09-15T02:34:38.780Z,18.70
2022-09-15T02:37:06.551Z,18.80
2022-09-15T02:39:37.792Z,18.80
2022-09-15T02:42:05.489Z,18.80
2022-09-15T02:44:32.981Z,18.70
2022-09-15T02:47:02.022Z,18.70
2022-09-15T02:49:29.223Z,18.70
2022-09-15T02:51:56.387Z,18.70
2022-09-15T02:54:23.424Z,18.60
2022-09-15T02:56:50.473Z,18.60
2022-09-15T02:59:17.434Z,18.60
2022-09-15T03:01:44.486Z,18.50
2022-09-15T03:04:11.498Z,18.60
2022-09-15T03:06:38.620Z,18.60
2022-09-15T03:09:08.191Z,18.60
2022-09-15T03:11:36.459Z,18.60
2022-09-15T03:14:06.268Z,18.60
2022-09-15T03:16:35.005Z,18.50
2022-09-15T03:19:02.866Z,18.50
2022-09-15T03:21:30.217Z,18.60
2022-09-15T03:23:58.698Z,18.50
2022-09-15T03:26:26.135Z,18.50
2022-09-15T03:28:53.560Z,18.50
2022-09-15T03:31:23.378Z,18.50
2022-09-15T03:33:56.757Z,18.50
2022-09-15T03:36:30.417Z,18.50
2022-09-15T03:39:05.096Z,18.40
2022-09-15T03:41:34.987Z,18.30
2022-09-15T03:44:05.159Z,18.30
2022-09-15T03:46:32.260Z,18.30
2022-09-15T03:48:59.231Z,18.30
2022-09-15T03:51:26.227Z,18.20
2022-09-15T03:53:53.358Z,18.20
2022-09-15T03:56:32.818Z,18.10
2022-09-15T03:59:01.740Z,18.10
2022-09-15T04:01:30.379Z,18.00
2022-09-15T04:03:58.848Z,18.00
2022-09-15T04:06:26.815Z,18.00
2022-09-15T04:08:54.648Z,17.90
2022-09-15T04:11:22.903Z,17.80
2022-09-15T04:13:50.295Z,17.80
2022-09-15T04:16:23.554Z,17.80
2022-09-15T04:18:51.828Z,17.80
2022-09-15T04:21:24.567Z,17.70
2022-09-15T04:23:51.986Z,17.80
2022-09-15T04:26:21.846Z,17.70
2022-09-15T04:28:49.001Z,17.80
2022-09-15T04:31:17.636Z,17.80
2022-09-15T04:33:45.239Z,17.80
2022-09-15T04:36:15.800Z,17.90
2022-09-15T04:38:48.169Z,17.80
2022-09-15T04:41:18.936Z,17.80
2022-09-15T04:43:50.254Z,17.80
2022-09-15T04:46:25.480Z,17.80
2022-09-15T04:48:53.449Z,17.80
2022-09-15T04:51:26.860Z,17.80
2022-09-15T04:53:59.306Z,17.80
2022-09-15T04:56:30.213Z,17.80
2022-09-15T04:59:04.179Z,17.80
2022-09-15T05:01:38.427Z,17.70
2022-09-15T05:04:16.959Z,17.80
2022-09-15T05:06:52.283Z,17.80
2022-09-15T05:09:23.057Z,17.60
2022-09-15T05:11:58.634Z,17.60
2022-09-15T05:14:40.837Z,17.70
2022-09-15T05:17:08.602Z,17.70
2022-09-15T05:19:38.564Z,17.80
2022-09-15T05:22:16.187Z,17.80
2022-09-15T05:24:44.073Z,17.80
2022-09-15T05:27:20.300Z,17.80
2022-09-15T05:30:09.956Z,17.80
2022-09-15T05:32:57.329Z,17.80
2022-09-15T05:35:30.142Z,17.70
2022-09-15T05:38:00.778Z,17.70
2022-09-15T05:40:30.851Z,17.80
2022-09-15T05:43:01.711Z,17.80
2022-09-15T05:45:31.788Z,17.80
2022-09-15T05:48:04.305Z,17.80
2022-09-15T05:50:37.757Z,17.80
2022-09-15T05:53:12.892Z,17.80
2022-09-15T05:55:45.081Z,17.80
2022-09-15T05:58:15.454Z,17.80
2022-09-15T06:00:53.334Z,17.80
2022-09-15T06:03:31.054Z,17.80
2022-09-15T06:06:06.107Z,17.80
2022-09-15T06:08:43.911Z,17.80
2022-09-15T06:11:15.434Z,17.90
2022-09-15T06:13:51.426Z,17.90
2022-09-15T06:16:27.000Z,18.00
2022-09-15T06:19:03.477Z,17.90
2022-09-15T06:21:42.903Z,17.90
2022-09-15T06:24:15.519Z,17.90
2022-09-15T06:26:47.684Z,18.00
2022-09-15T06:29:31.448Z,18.00
2022-09-15T06:32:20.581Z,18.00
2022-09-15T06:34:48.649Z,18.10
2022-09-15T06:37:16.619Z,18.00
2022-09-15T06:39:46.836Z,18.00
2022-09-15T06:42:15.036Z,18.00
2022-09-15T06:44:43.814Z,18.10
2022-09-15T06:47:15.924Z,18.20
2022-09-15T06:49:48.547Z,18.20
2022-09-15T06:52:20.110Z,18.20
2022-09-15T06:54:50.207Z,18.20
2022-09-15T06:57:20.743Z,18.20
2022-09-15T06:59:51.662Z,18.30
2022-09-15T07:02:23.554Z,18.30
2022-09-15T07:04:51.926Z,18.20
2022-09-15T07:07:23.684Z,18.30
2022-09-15T07:09:54.088Z,18.30
2022-09-15T07:12:24.467Z,18.40
2022-09-15T07:14:52.130Z,18.50
2022-09-15T07:17:22.087Z,18.70
2022-09-15T07:19:49.835Z,18.80
2022-09-15T07:22:17.458Z,19.00
2022-09-15T07:24:47.700Z,19.00
2022-09-15T07:27:21.892Z,19.20
2022-09-15T07:29:59.577Z,19.30
2022-09-15T07:32:35.791Z,19.40
2022-09-15T07:35:22.124Z,19.40
2022-09-15T07:37:55.035Z,19.60
2022-09-15T07:40:26.685Z,19.80
2022-09-15T07:43:02.138Z,20.00
2022-09-15T07:45:32.907Z,20.20
2022-09-15T07:48:11.767Z,20.30
2022-09-15T07:50:42.394Z,20.50
2022-09-15T07:53:12.205Z,20.70
2022-09-15T07:55:42.880Z,20.90
2022-09-15T07:58:20.063Z,21.10
2022-09-15T08:00:55.656Z,21.20
2022-09-15T08:03:31.749Z,21.20
2022-09-15T08:06:06.784Z,21.20
2022-09-15T08:08:36.285Z,21.30
2022-09-15T08:11:16.357Z,21.40
2022-09-15T08:13:47.293Z,21.60
2022-09-15T08:16:17.750Z,21.70
2022-09-15T08:18:50.564Z,21.90
2022-09-15T08:21:22.279Z,22.10
2022-09-15T08:23:58.380Z,22.30
2022-09-15T08:26:32.384Z,22.70
2022-09-15T08:29:04.178Z,23.00
2022-09-15T08:31:34.048Z,23.10
2022-09-15T08:34:06.874Z,22.90
2022-09-15T08:36:39.029Z,22.70
2022-09-15T08:39:10.165Z,22.40
2022-09-15T08:41:45.719Z,22.20
2022-09-15T08:44:34.821Z,22.10
2022-09-15T08:47:18.632Z,22.10
2022-09-15T08:50:01.051Z,22.10
2022-09-15T08:52:50.940Z,22.10
2022-09-15T08:55:46.999Z,22.20
2022-09-15T08:58:26.787Z,22.20
2022-09-15T09:01:17.387Z,22.30
2022-09-15T09:04:15.377Z,22.40
2022-09-15T09:07:19.092Z,22.50
2022-09-15T09:09:58.725Z,22.50
2022-09-15T09:12:45.942Z,22.50
2022-09-15T09:15:44.706Z,22.40
2022-09-15T09:18:27.888Z,22.30
2022-09-15T09:21:14.777Z,22.20
2022-09-15T09:23:56.268Z,22.10
2022-09-15T09:26:32.933Z,22.00
2022-09-15T09:29:09.130Z,21.90
2022-09-15T09:31:50.470Z,21.70
2022-09-15T09:35:11.198Z,21.70
2022-09-15T09:37:40.994Z,21.70
2022-09-15T09:40:14.653Z,21.60
2022-09-15T09:42:49.329Z,21.80
2022-09-15T09:45:25.207Z,21.90
2022-09-15T09:48:10.248Z,21.90
2022-09-15T09:50:47.337Z,22.00
2022-09-15T09:53:37.481Z,22.10
2022-09-15T09:56:24.931Z,22.00
2022-09-15T09:58:55.493Z,22.00
2022-09-15T10:01:30.903Z,21.90
2022-09-15T10:04:19.493Z,21.90
2022-09-15T10:07:00.395Z,21.90
2022-09-15T10:09:35.275Z,21.90
2022-09-15T10:12:07.344Z,21.90
2022-09-15T10:14:42.278Z,21.90
2022-09-15T10:17:25.004Z,21.90
2022-09-15T10:20:00.525Z,21.90
2022-09-15T10:22:35.206Z,21.90
2022-09-15T10:25:35.683Z,21.90
2022-09-15T10:28:16.656Z,21.80
2022-09-15T10:31:08.048Z,21.50
2022-09-15T10:33:45.363Z,21.20
2022-09-15T10:36:20.997Z,21.00
2022-09-15T10:39:26.664Z,20.70
2022-09-15T10:42:04.688Z,20.80
2022-09-15T10:45:09.415Z,20.80
2022-09-15T10:48:21.214Z,20.70
2022-09-15T10:51:24.717Z,20.70
2022-09-15T10:54:32.948Z,20.80
2022-09-15T10:57:20.060Z,20.80
2022-09-15T11:00:07.936Z,20.80
2022-09-15T11:02:57.132Z,20.80
2022-09-15T11:05:59.923Z,20.70
2022-09-15T11:08:42.886Z,20.60
2022-09-15T11:11:39.799Z,20.50
2022-09-15T11:14:12.536Z,20.40
2022-09-15T11:17:04.488Z,20.30
2022-09-15T11:19:31.406Z,20.20
2022-09-15T11:22:13.448Z,20.00
2022-09-15T11:25:01.050Z,19.90
2022-09-15T11:27:42.577Z,19.80
2022-09-15T11:30:22.361Z,19.80
2022-09-15T11:32:55.614Z,19.60
2022-09-15T11:36:01.945Z,19.50
2022-09-15T11:38:42.971Z,19.40
2022-09-15T11:41:19.114Z,19.30
2022-09-15T11:44:27.866Z,19.30
2022-09-15T11:47:18.801Z,19.40
2022-09-15T11:49:48.234Z,19.50
2022-09-15T11:52:44.501Z,19.60
2022-09-15T11:55:36.100Z,19.70
2022-09-15T11:58:18.494Z,19.70
2022-09-15T12:00:59.184Z,19.90
2022-09-15T12:03:47.555Z,20.00
2022-09-15T12:06:20.421Z,20.10
2022-09-15T12:08:57.885Z,20.30
2022-09-15T12:11:27.734Z,20.40
2022-09-15T12:13:55.787Z,20.80
2022-09-15T12:16:24.327Z,21.00
2022-09-15T12:19:13.534Z,21.10
2022-09-15T12:21:56.502Z,21.10
2022-09-15T12:24:29.356Z,21.10
2022-09-15T12:26:59.254Z,21.00
2022-09-15T12:29:26.198Z,20.90
2022-09-15T12:32:26.890Z,20.80
2022-09-15T12:34:59.563Z,20.80
2022-09-15T12:37:35.669Z,20.80
2022-09-15T12:40:06.155Z,20.80
2022-09-15T12:42:35.175Z,20.80
2022-09-15T12:45:19.966Z,20.80
2022-09-15T12:47:54.678Z,20.80
2022-09-15T12:50:27.628Z,20.70
2022-09-15T12:53:18.572Z,20.70
2022-09-15T12:55:52.612Z,20.70
2022-09-15T12:58:40.761Z,20.80
2022-09-15T13:01:22.591Z,20.90
2022-09-15T13:03:49.673Z,21.00
2022-09-15T13:06:19.815Z,21.00
2022-09-15T13:09:02.045Z,20.80
2022-09-15T13:11:40.937Z,20.80
2022-09-15T13:14:19.184Z,20.70
2022-09-15T13:17:18.588Z,20.70
2022-09-15T13:19:54.285Z,20.80
2022-09-15T13:22:32.261Z,20.70
2022-09-15T13:25:13.840Z,20.70
2022-09-15T13:27:49.811Z,20.70
2022-09-15T13:30:31.951Z,20.80
2022-09-15T13:33:10.926Z,20.60
2022-09-15T13:36:01.518Z,20.60
2022-09-15T13:38:36.012Z,20.60
2022-09-15T13:41:15.313Z,20.60
2022-09-15T13:44:32.892Z,20.60
2022-09-15T13:47:33.640Z,20.60
2022-09-15T13:50:23.379Z,20.70
2022-09-15T13:52:59.845Z,20.60
2022-09-15T13:55:31.632Z,20.60
2022-09-15T14:00:53.639Z,20.50
2022-09-15T14:03:39.147Z,20.50
2022-09-15T14:06:17.276Z,20.50
2022-09-15T14:08:49.032Z,20.70
2022-09-15T14:11:22.187Z,20.70
2022-09-15T14:13:50.918Z,20.70
2022-09-15T14:16:23.867Z,20.80
2022-09-15T14:18:53.222Z,20.80
2022-09-15T14:21:25.619Z,20.80
2022-09-15T14:23:59.979Z,20.80
2022-09-15T14:26:29.143Z,20.70
2022-09-15T14:29:01.763Z,20.60
2022-09-15T14:31:41.101Z,20.60
2022-09-15T14:34:18.728Z,20.60
2022-09-15T14:36:46.517Z,20.40
2022-09-15T14:39:20.365Z,20.40
2022-09-15T14:41:48.530Z,20.40
2022-09-15T14:47:28.065Z,20.40
2022-09-15T14:50:13.772Z,20.20
2022-09-15T14:52:43.519Z,20.20
2022-09-15T14:55:19.452Z,20.20
2022-09-15T14:57:56.026Z,20.20
2022-09-15T15:00:27.741Z,20.20
2022-09-15T15:03:24.127Z,20.10
2022-09-15T15:06:30.515Z,20.10
2022-09-15T15:09:09.258Z,20.10
2022-09-15T15:11:39.093Z,20.10
2022-09-15T15:14:11.863Z,20.10
2022-09-15T15:16:56.937Z,20.20
2022-09-15T15:19:38.353Z,20.20
2022-09-15T15:22:15.223Z,20.20
2022-09-15T15:24:45.533Z,20.10
2022-09-15T15:27:41.976Z,20.10
2022-09-15T15:30:34.319Z,20.00
2022-09-15T15:33:19.318Z,20.00
2022-09-15T15:35:47.190Z,20.00
2022-09-15T15:38:18.497Z,19.90
2022-09-15T15:40:46.921Z,20.00
2022-09-15T15:43:20.419Z,20.00
2022-09-15T15:46:03.307Z,19.90
2022-09-15T15:48:37.809Z,19.90
2022-09-15T15:51:06.809Z,19.70
2022-09-15T15:53:34.517Z,19.70
2022-09-15T15:56:01.752Z,19.70
2022-09-15T15:58:28.823Z,19.70
2022-09-15T16:00:57.001Z,19.70
2022-09-15T16:03:25.315Z,19.70
2022-09-15T16:05:54.491Z,19.70
2022-09-15T16:08:31.736Z,19.70
2022-09-15T16:11:00.778Z,19.60
2022-09-15T16:13:28.599Z,19.60
2022-09-15T16:16:00.608Z,19.60
2022-09-15T16:18:28.568Z,19.50
2022-09-15T16:20:55.573Z,19.50
2022-09-15T16:23:23.586Z,19.50
2022-09-15T16:26:03.768Z,19.30
2022-09-15T16:28:30.834Z,19.30
2022-09-15T16:30:58.579Z,19.30
2022-09-15T16:33:26.611Z,19.30
2022-09-15T16:35:55.785Z,19.30
2022-09-15T16:38:26.017Z,19.30
2022-09-15T16:40:53.125Z,19.20
2022-09-15T16:43:21.708Z,19.20
2022-09-15T16:45:49.959Z,19.10
2022-09-15T16:48:17.584Z,19.00
2022-09-15T16:50:56.081Z,19.00
2022-09-15T16:53:32.766Z,18.90
2022-09-15T16:55:59.889Z,18.90
2022-09-15T16:58:26.938Z,18.90
2022-09-15T17:00:53.980Z,18.90
2022-09-15T17:03:23.876Z,18.80
2022-09-15T17:06:01.984Z,18.70
2022-09-15T17:08:33.089Z,18.60
2022-09-15T17:11:05.444Z,18.60
2022-09-15T17:13:34.303Z,18.60
2022-09-15T17:16:02.314Z,18.60
2022-09-15T17:18:29.777Z,18.50
2022-09-15T17:20:57.076Z,18.60
2022-09-15T17:23:25.582Z,18.50
2022-09-15T17:25:59.421Z,18.50
2022-09-15T17:28:32.047Z,18.50
2022-09-15T17:31:01.776Z,18.50
2022-09-15T17:33:30.013Z,18.60
2022-09-15T17:35:58.013Z,18.60
2022-09-15T17:38:25.279Z,18.60
2022-09-15T17:40:53.249Z,18.60
2022-09-15T17:43:22.953Z,18.50
2022-09-15T17:45:51.343Z,18.40
2022-09-15T17:48:18.343Z,18.40
2022-09-15T17:50:46.348Z,18.30
2022-09-15T17:53:15.707Z,18.30
2022-09-15T17:55:43.279Z,18.30
2022-09-15T17:58:10.925Z,18.30
2022-09-15T18:00:40.371Z,18.20
2022-09-15T18:03:24.560Z,18.20
2022-09-15T18:05:52.201Z,18.30
2022-09-15T18:08:19.240Z,18.30
2022-09-15T18:10:46.429Z,18.20
2022-09-15T18:13:16.850Z,18.20
2022-09-15T18:15:44.602Z,18.20
2022-09-15T18:18:17.893Z,18.20
2022-09-15T18:20:46.070Z,18.10
2022-09-15T18:23:18.878Z,18.10
2022-09-15T18:25:47.429Z,18.10
2022-09-15T18:28:15.526Z,18.10
2022-09-15T18:30:45.061Z,18.10
2022-09-15T18:33:16.996Z,18.10
2022-09-15T18:35:45.164Z,18.10
2022-09-15T18:38:12.838Z,18.10
2022-09-15T18:40:45.357Z,18.00
2022-09-15T18:43:12.614Z,18.00
2022-09-15T18:45:42.840Z,18.00
2022-09-15T18:48:12.785Z,17.90
2022-09-15T18:50:41.554Z,17.90
2022-09-15T18:53:09.503Z,17.90
2022-09-15T18:55:37.052Z,17.80
2022-09-15T18:58:04.610Z,17.80
2022-09-15T19:00:31.995Z,17.80
2022-09-15T19:03:01.006Z,17.80
2022-09-15T19:05:30.239Z,17.80
2022-09-15T19:07:57.879Z,17.80
2022-09-15T19:10:27.254Z,17.80
2022-09-15T19:12:54.481Z,17.80
2022-09-15T19:15:24.720Z,17.80
2022-09-15T19:17:52.090Z,17.70
2022-09-15T19:20:19.819Z,17.60
2022-09-15T19:22:48.091Z,17.50
2022-09-15T19:25:15.499Z,17.50
2022-09-15T19:27:43.339Z,17.60
2022-09-15T19:30:12.211Z,17.60
2022-09-15T19:32:40.621Z,17.60
2022-09-15T19:35:09.346Z,17.60
2022-09-15T19:37:41.413Z,17.60
2022-09-15T19:40:12.386Z,17.50
2022-09-15T19:42:41.369Z,17.50
2022-09-15T19:45:10.653Z,17.40
2022-09-15T19:47:38.956Z,17.30
2022-09-15T19:50:08.425Z,17.30
2022-09-15T19:52:35.791Z,17.30
2022-09-15T19:55:03.798Z,17.30
2022-09-15T19:57:30.846Z,17.30
2022-09-15T19:59:57.820Z,17.40
2022-09-15T20:02:24.830Z,17.30
2022-09-15T20:05:05.099Z,17.40
2022-09-15T20:07:32.384Z,17.40
2022-09-15T20:09:59.267Z,17.40
2022-09-15T20:12:26.763Z,17.30
2022-09-15T20:14:53.743Z,17.30
2022-09-15T20:17:20.709Z,17.40
2022-09-15T20:19:47.716Z,17.40
2022-09-15T20:22:14.706Z,17.40
2022-09-15T20:24:41.738Z,17.30
2022-09-15T20:27:08.986Z,17.30
2022-09-15T20:29:35.937Z,17.30
2022-09-15T20:32:03.016Z,17.30
2022-09-15T20:34:29.941Z,17.30
2022-09-15T20:36:56.911Z,17.30
2022-09-15T20:39:24.440Z,17.20
2022-09-15T20:41:51.403Z,17.20
2022-09-15T20:44:18.362Z,17.20
2022-09-15T20:46:45.378Z,17.30
2022-09-15T20:49:12.676Z,17.30
2022-09-15T20:51:39.649Z,17.30
2022-09-15T20:54:06.697Z,17.30
2022-09-15T20:56:35.483Z,17.30
2022-09-15T20:59:03.655Z,17.30
2022-09-15T21:01:36.896Z,17.30
2022-09-15T21:04:04.871Z,17.20
2022-09-15T21:06:32.084Z,17.20
2022-09-15T21:08:59.189Z,17.20
2022-09-15T21:11:28.015Z,17.10
2022-09-15T21:13:55.991Z,17.10
2022-09-15T21:16:26.199Z,17.10
2022-09-15T21:18:53.618Z,17.10
2022-09-15T21:21:28.455Z,17.00
2022-09-15T21:23:58.744Z,17.00
2022-09-15T21:26:28.363Z,17.00
2022-09-15T21:28:56.341Z,17.00
2022-09-15T21:31:33.441Z,17.00
2022-09-15T21:34:00.995Z,17.00
2022-09-15T21:36:31.617Z,17.00
2022-09-15T21:38:59.805Z,17.00
2022-09-15T21:41:31.978Z,17.00
2022-09-15T21:44:00.739Z,17.00
2022-09-15T21:46:29.685Z,17.00
2022-09-15T21:48:59.705Z,16.90
2022-09-15T21:51:29.201Z,16.90
2022-09-15T21:53:57.869Z,16.90
2022-09-15T21:56:26.382Z,16.90
2022-09-15T21:58:54.478Z,16.90
2022-09-15T22:01:30.295Z,16.90
2022-09-15T22:03:59.632Z,16.90
2022-09-15T22:06:32.208Z,16.90
2022-09-15T22:09:26.372Z,16.80
2022-09-15T22:11:53.524Z,16.80
2022-09-15T22:14:21.691Z,16.80
2022-09-15T22:16:48.654Z,16.80
2022-09-15T22:19:15.998Z,16.90
2022-09-15T22:21:43.037Z,16.90
2022-09-15T22:24:12.927Z,16.90
2022-09-15T22:26:40.886Z,16.80
2022-09-15T22:29:07.991Z,16.80
2022-09-15T22:31:35.710Z,16.80
2022-09-15T22:34:03.013Z,16.70
2022-09-15T22:36:31.003Z,16.80
2022-09-15T22:39:05.274Z,16.80
2022-09-15T22:41:35.047Z,16.90
2022-09-15T22:44:03.280Z,16.90
2022-09-15T22:46:30.465Z,16.90
2022-09-15T22:48:57.522Z,16.90
2022-09-15T22:51:24.516Z,16.90
2022-09-15T22:53:56.822Z,16.90
2022-09-15T22:56:26.130Z,16.90
2022-09-15T22:58:54.029Z,16.90
2022-09-15T23:01:27.047Z,16.90
2022-09-15T23:03:57.012Z,16.90
2022-09-15T23:06:25.807Z,16.90
2022-09-15T23:08:54.753Z,16.90
2022-09-15T23:11:22.235Z,17.00
2022-09-15T23:13:49.247Z,16.90
2022-09-15T23:16:16.944Z,16.90
2022-09-15T23:18:44.350Z,16.90
2022-09-15T23:21:13.889Z,16.90
2022-09-15T23:23:43.255Z,16.90
2022-09-15T23:26:12.067Z,16.90
2022-09-15T23:28:39.840Z,16.90
2022-09-15T23:31:08.390Z,16.90
2022-09-15T23:33:35.450Z,16.90
2022-09-15T23:36:05.345Z,16.90
2022-09-15T23:38:36.290Z,16.90
2022-09-15T23:41:03.451Z,16.80
2022-09-15T23:43:30.536Z,16.80
2022-09-15T23:45:57.533Z,16.80
2022-09-15T23:48:24.510Z,16.80
2022-09-15T23:50:51.786Z,16.80
2022-09-15T23:53:18.975Z,16.80
2022-09-15T23:55:47.523Z,16.70
2022-09-15T23:58:14.684Z,16.70
